Burns Town, Louisiana
Current Conditions -  °F | °C
As of 11:08 AM on Sunday 23 Nov 2014 (Local Time) from KAEX Reporting Station
Light Rain Light Rain  
Wind Chill: 65°   Ceiling: 1600
Heat Index: 65°   Visibility: 10mi
Dew Point: 61°   Wind: 17mph
Humidity: 87%   Direction: 240°WSW
Pressure: 29.59"   Gusts: NA
Location:  31.4254°N, 92.7765°W
Report Text: KAEX 231708Z 24015KT 10SM -RA OVC016 18/16 A2959 RMK AO2 P0000 T01830161
Loading
Personal Weather Stations






























Interactive Weather Map New forecast layout! Learn more

10-Day Weather Forecast

Advertisements
Track Severe Weather on mobile